Terminal Aerodrome Forecast
Issued by NWS

Home | Current Version | Previous Version | Text Only | Print | Product List | Glossary On
Versions: 1 2 3 4 5 6 7 8 9 10 11 12
000
FTUS45 KRIW 281100
TAFLND
TAF
KLND 281135Z 2812/2912 VRB05KT P6SM SCT060 BKN090
     FM281600 VRB05KT P6SM VCSH SCT030 BKN050
     FM290000 VRB05KT P6SM SCT035 BKN060
     FM290800 VRB05KT P6SM VCFG FEW005 SCT030=

USA.gov is the U.S. government's official web portal to all federal, state and local government web resources and services.